Time;durP1;ratioP1;P1;durP2;ratioP2;P2;SDS_P1;SDS_P2;PMS_P1;PMS_P2;Temp;Humidity;BMP_temperature;BMP_pressure;BME280_temperature;BME280_humidity;BME280_pressure;Samples;Min_cycle;Max_cycle;Signal;HPM_P1;HPM_P2
2023/12/03 00:00:31;;;;;;;14.52;10.27;;;17.60;99.90;;;;;;4591432;19;20003;-79
2023/12/03 00:02:27;;;;;;;16.77;10.48;;;17.60;99.90;;;;;;4589785;19;20311;-79
2023/12/03 00:04:01;;;;;;;13.18;9.93;;;17.60;99.90;;;;;;4591090;19;20471;-79
2023/12/03 00:05:38;;;;;;;14.57;10.43;;;17.70;99.90;;;;;;4589260;19;20015;-79
2023/12/03 00:07:17;;;;;;;15.82;11.43;;;17.70;99.90;;;;;;4591395;19;19999;-78
2023/12/03 00:08:52;;;;;;;15.85;10.57;;;17.70;99.90;;;;;;4591260;19;20017;-79
2023/12/03 00:10:26;;;;;;;16.02;10.57;;;17.60;99.90;;;;;;4591435;19;20010;-79
2023/12/03 00:12:01;;;;;;;14.77;9.93;;;17.60;99.90;;;;;;4591376;19;20011;-79
2023/12/03 00:13:35;;;;;;;15.32;10.48;;;17.70;99.90;;;;;;4591242;19;20002;-79
2023/12/03 00:15:10;;;;;;;12.80;9.82;;;17.60;99.90;;;;;;4591246;19;20435;-78
2023/12/03 00:16:45;;;;;;;16.77;11.05;;;17.60;99.90;;;;;;4591863;19;20048;-79
2023/12/03 00:18:19;;;;;;;13.90;10.98;;;17.60;99.90;;;;;;4591360;19;20003;-79
2023/12/03 00:19:53;;;;;;;14.30;10.82;;;17.60;99.90;;;;;;4591079;19;20037;-79
2023/12/03 00:21:28;;;;;;;15.77;10.93;;;17.60;99.90;;;;;;4591425;19;20011;-79
2023/12/03 00:23:03;;;;;;;14.48;11.45;;;17.60;99.90;;;;;;4589765;19;20101;-79
2023/12/03 00:24:37;;;;;;;16.70;11.63;;;17.60;99.90;;;;;;4589263;19;20002;-78
2023/12/03 00:26:13;;;;;;;13.85;10.25;;;17.60;99.90;;;;;;4588658;19;20011;-78
2023/12/03 00:27:48;;;;;;;13.82;10.45;;;17.60;99.90;;;;;;4591349;19;20006;-78
2023/12/03 00:29:22;;;;;;;14.30;10.35;;;17.50;99.90;;;;;;4589965;19;20002;-78
2023/12/03 00:30:59;;;;;;;13.82;10.80;;;17.50;99.90;;;;;;4590682;19;20006;-78
2023/12/03 00:32:33;;;;;;;15.95;10.95;;;17.50;99.90;;;;;;4590632;19;20008;-78
2023/12/03 00:34:07;;;;;;;14.35;10.52;;;17.50;99.90;;;;;;4595005;19;20003;-79
2023/12/03 00:35:43;;;;;;;14.93;10.27;;;17.50;99.90;;;;;;4593438;19;20025;-78
2023/12/03 00:37:20;;;;;;;13.60;10.73;;;17.50;99.90;;;;;;4595539;19;20002;-78
2023/12/03 00:38:56;;;;;;;12.95;9.48;;;17.50;99.90;;;;;;4595303;19;20022;-77
2023/12/03 00:40:31;;;;;;;14.70;10.15;;;17.60;99.90;;;;;;4595772;19;20469;-79
2023/12/03 00:42:06;;;;;;;13.70;9.77;;;17.60;99.90;;;;;;4595469;19;20456;-79
2023/12/03 00:43:40;;;;;;;13.55;9.55;;;17.70;99.90;;;;;;4595238;19;20069;-79
2023/12/03 00:45:15;;;;;;;13.60;9.35;;;17.80;99.90;;;;;;4593825;19;20006;-79
2023/12/03 00:46:49;;;;;;;13.40;10.15;;;17.80;99.90;;;;;;4595265;19;19998;-79
2023/12/03 00:48:24;;;;;;;15.13;10.68;;;17.80;99.90;;;;;;4595192;19;20430;-79
2023/12/03 00:50:00;;;;;;;14.27;10.07;;;17.90;99.90;;;;;;4595139;19;20012;-78
2023/12/03 00:51:33;;;;;;;14.48;9.63;;;17.90;99.90;;;;;;4595047;19;20303;-78
2023/12/03 00:53:08;;;;;;;12.77;9.02;;;17.90;99.90;;;;;;4594066;19;19999;-79
2023/12/03 00:54:43;;;;;;;13.38;10.32;;;18.00;99.90;;;;;;4595364;19;20365;-78
2023/12/03 00:56:17;;;;;;;14.20;10.13;;;18.00;99.90;;;;;;4592405;19;20029;-79
2023/12/03 00:57:51;;;;;;;14.10;10.13;;;18.00;99.90;;;;;;4594640;19;20006;-78
2023/12/03 00:59:26;;;;;;;14.55;9.55;;;18.00;99.90;;;;;;4595095;19;20027;-78
2023/12/03 01:18:49;;;;;;;13.35;10.50;;;17.60;99.90;;;;;;4568280;19;20376;-78
2023/12/03 01:20:27;;;;;;;14.13;10.27;;;17.60;99.90;;;;;;4593363;19;20010;-78
2023/12/03 01:22:02;;;;;;;16.75;10.32;;;17.60;99.90;;;;;;4594195;19;20011;-78
2023/12/03 01:23:36;;;;;;;13.57;9.68;;;17.60;99.90;;;;;;4593047;19;19999;-78
2023/12/03 01:25:13;;;;;;;13.63;10.02;;;17.50;99.90;;;;;;4593016;19;20303;-78
2023/12/03 01:26:47;;;;;;;14.38;10.23;;;17.50;99.90;;;;;;4594411;19;20015;-78
2023/12/03 01:28:22;;;;;;;12.55;9.38;;;17.50;99.90;;;;;;4593977;19;20009;-78
2023/12/03 01:29:57;;;;;;;16.52;9.60;;;17.50;99.90;;;;;;4594861;19;20015;-77
2023/12/03 01:31:32;;;;;;;15.25;11.27;;;17.40;99.90;;;;;;4594314;19;20007;-78
2023/12/03 01:33:06;;;;;;;13.40;9.90;;;17.40;99.90;;;;;;4594334;19;20003;-78
2023/12/03 01:34:42;;;;;;;12.90;9.65;;;17.40;99.90;;;;;;4594246;19;20007;-78
2023/12/03 01:36:17;;;;;;;12.05;9.35;;;17.30;99.90;;;;;;4594181;19;19998;-78
2023/12/03 01:37:50;;;;;;;14.05;10.00;;;17.30;99.90;;;;;;4594218;19;20297;-78
2023/12/03 01:39:26;;;;;;;12.68;9.40;;;17.30;99.90;;;;;;4592883;19;20006;-78
2023/12/03 01:41:00;;;;;;;14.48;9.88;;;17.30;99.90;;;;;;4594033;19;20066;-78
2023/12/03 01:42:34;;;;;;;14.35;10.38;;;17.30;99.90;;;;;;4594098;19;20022;-78
2023/12/03 01:44:09;;;;;;;15.00;9.57;;;17.30;99.90;;;;;;4592655;19;20013;-77
2023/12/03 01:45:45;;;;;;;13.80;9.77;;;17.30;99.90;;;;;;4593740;19;20006;-78
2023/12/03 01:47:19;;;;;;;11.77;8.82;;;17.20;99.90;;;;;;4594245;19;20006;-78
2023/12/03 01:48:55;;;;;;;14.85;9.57;;;17.20;99.90;;;;;;4591977;19;20025;-77
2023/12/03 01:50:31;;;;;;;13.63;9.60;;;17.20;99.90;;;;;;4593602;19;20010;-77
2023/12/03 01:52:05;;;;;;;14.07;10.30;;;17.20;99.90;;;;;;4593847;19;20002;-77
2023/12/03 01:53:42;;;;;;;14.07;10.00;;;17.20;99.90;;;;;;4592648;19;20475;-78
2023/12/03 01:55:17;;;;;;;14.93;10.20;;;17.10;99.90;;;;;;4592591;19;20007;-77
2023/12/03 01:56:52;;;;;;;14.05;10.60;;;17.10;99.90;;;;;;4592498;19;20014;-77
2023/12/03 01:58:27;;;;;;;13.43;9.75;;;17.10;99.90;;;;;;4593227;19;20031;-78
2023/12/03 02:00:03;;;;;;;14.07;10.20;;;17.10;99.90;;;;;;4593996;19;20006;-77
2023/12/03 02:01:37;;;;;;;14.57;9.63;;;17.10;99.90;;;;;;4593791;19;20011;-78
2023/12/03 02:03:13;;;;;;;13.98;9.10;;;17.10;99.90;;;;;;4592270;19;20014;-77
2023/12/03 02:04:47;;;;;;;14.30;10.15;;;17.00;99.90;;;;;;4592383;19;20008;-78
2023/12/03 02:06:21;;;;;;;12.52;9.70;;;17.00;99.90;;;;;;4592264;19;20333;-78
2023/12/03 02:07:58;;;;;;;13.40;9.63;;;17.00;99.90;;;;;;4593261;19;20015;-78
2023/12/03 02:09:32;;;;;;;11.57;9.13;;;17.00;99.90;;;;;;4592300;19;20010;-78
2023/12/03 02:11:07;;;;;;;12.98;9.68;;;17.00;99.90;;;;;;4593518;19;19998;-78
2023/12/03 02:12:43;;;;;;;12.55;9.05;;;16.90;99.90;;;;;;4593772;19;20084;-77
2023/12/03 02:14:17;;;;;;;13.00;9.57;;;16.90;99.90;;;;;;4593732;19;20009;-78
2023/12/03 02:15:52;;;;;;;13.48;10.20;;;16.90;99.90;;;;;;4593487;19;19999;-77
2023/12/03 02:17:27;;;;;;;13.82;9.90;;;16.90;99.90;;;;;;4593677;19;20328;-78
2023/12/03 02:19:03;;;;;;;13.70;9.90;;;16.90;99.90;;;;;;4592215;19;20026;-78
2023/12/03 02:20:38;;;;;;;13.50;10.20;;;16.90;99.90;;;;;;4591904;19;20429;-77
2023/12/03 02:22:14;;;;;;;13.70;9.27;;;16.80;99.90;;;;;;4593027;19;20010;-78
2023/12/03 02:23:49;;;;;;;12.23;9.23;;;16.80;99.90;;;;;;4593218;19;20010;-77
2023/12/03 02:25:23;;;;;;;11.73;9.18;;;16.80;99.90;;;;;;4590639;19;20315;-77
2023/12/03 02:26:58;;;;;;;11.68;8.82;;;16.80;99.90;;;;;;4592918;19;20018;-77
2023/12/03 02:28:32;;;;;;;13.00;9.57;;;16.80;99.90;;;;;;4592660;19;20029;-77
2023/12/03 02:30:06;;;;;;;12.32;8.73;;;16.80;99.90;;;;;;4592044;19;20007;-78
2023/12/03 02:31:42;;;;;;;13.30;8.85;;;16.80;99.90;;;;;;4592856;19;20011;-77
2023/12/03 02:33:16;;;;;;;15.20;9.85;;;16.70;99.90;;;;;;4592859;19;20013;-77
2023/12/03 02:34:51;;;;;;;11.90;9.18;;;16.80;99.90;;;;;;4593247;19;20062;-77
2023/12/03 02:36:27;;;;;;;12.73;8.88;;;16.70;99.90;;;;;;4593232;19;20029;-77
2023/12/03 02:38:02;;;;;;;12.00;9.55;;;16.70;99.90;;;;;;4592887;19;20320;-77
2023/12/03 02:39:37;;;;;;;12.70;9.38;;;16.80;99.90;;;;;;4591708;19;20002;-77
2023/12/03 02:41:12;;;;;;;14.05;9.95;;;16.70;99.90;;;;;;4593245;19;20010;-77
2023/12/03 02:42:46;;;;;;;13.35;10.60;;;16.70;99.90;;;;;;4592807;19;20006;-78
2023/12/03 02:44:21;;;;;;;13.70;9.38;;;16.70;99.90;;;;;;4592726;19;20358;-77
2023/12/03 02:45:57;;;;;;;11.98;8.98;;;16.60;99.90;;;;;;4592937;19;20010;-77
2023/12/03 02:47:31;;;;;;;13.68;10.18;;;16.70;99.90;;;;;;4592753;19;20010;-77
2023/12/03 02:49:09;;;;;;;13.20;9.13;;;16.70;99.90;;;;;;4591990;19;20291;-77
2023/12/03 02:50:44;;;;;;;13.35;9.77;;;16.70;99.90;;;;;;4592800;19;20455;-77
2023/12/03 02:52:18;;;;;;;13.63;9.38;;;16.60;99.90;;;;;;4592663;19;20005;-78
2023/12/03 02:53:53;;;;;;;13.02;8.95;;;16.60;99.90;;;;;;4591363;19;20009;-77
2023/12/03 02:55:28;;;;;;;13.27;9.10;;;16.60;99.90;;;;;;4591151;19;20011;-77
2023/12/03 02:57:05;;;;;;;11.55;8.73;;;16.60;99.90;;;;;;4590154;19;20002;-77
2023/12/03 02:58:42;;;;;;;13.88;9.57;;;16.60;99.90;;;;;;4591072;19;20025;-78
2023/12/03 03:00:17;;;;;;;11.90;9.18;;;16.60;99.90;;;;;;4592635;19;20088;-77
2023/12/03 03:01:51;;;;;;;13.48;8.82;;;16.60;99.90;;;;;;4592584;19;20003;-77
2023/12/03 03:03:26;;;;;;;14.05;10.05;;;16.60;99.90;;;;;;4592723;19;20002;-78
2023/12/03 03:05:01;;;;;;;12.50;9.45;;;16.50;99.90;;;;;;4591575;19;20007;-78
2023/12/03 03:06:38;;;;;;;13.90;9.88;;;16.50;99.90;;;;;;4592447;19;20009;-78
2023/12/03 03:08:11;;;;;;;11.70;8.80;;;16.50;99.90;;;;;;4592223;19;20074;-77
2023/12/03 03:09:47;;;;;;;11.80;8.45;;;16.50;99.90;;;;;;4592437;19;20006;-77
2023/12/03 03:11:23;;;;;;;13.73;9.70;;;16.50;99.90;;;;;;4592355;19;20029;-77
2023/12/03 03:12:58;;;;;;;11.30;8.60;;;16.50;99.90;;;;;;4590972;19;19998;-77
2023/12/03 03:14:33;;;;;;;13.32;9.23;;;16.50;99.90;;;;;;4592008;19;20002;-78
2023/12/03 03:16:08;;;;;;;11.80;9.20;;;16.50;99.90;;;;;;4591017;19;20009;-78
2023/12/03 03:17:42;;;;;;;12.32;8.85;;;16.50;99.90;;;;;;4591855;19;20013;-78
2023/12/03 03:19:18;;;;;;;11.25;8.57;;;16.50;99.90;;;;;;4591048;19;20025;-77
2023/12/03 03:20:53;;;;;;;11.50;7.85;;;16.50;99.90;;;;;;4592090;19;20037;-78
2023/12/03 03:22:27;;;;;;;11.10;8.35;;;16.40;99.90;;;;;;4592128;19;20077;-77
2023/12/03 03:24:02;;;;;;;11.50;8.35;;;16.40;99.90;;;;;;4591949;19;20019;-77
2023/12/03 03:25:37;;;;;;;12.27;8.80;;;16.40;99.90;;;;;;4592026;19;20006;-78
2023/12/03 03:27:11;;;;;;;10.90;8.80;;;16.40;99.90;;;;;;4591978;19;20350;-78
2023/12/03 03:28:47;;;;;;;11.68;8.30;;;16.40;99.90;;;;;;4591480;19;20015;-78
2023/12/03 03:30:21;;;;;;;10.75;8.32;;;16.40;99.90;;;;;;4591961;19;20003;-78
2023/12/03 03:31:55;;;;;;;12.95;8.45;;;16.40;99.90;;;;;;4591973;19;20010;-77
2023/12/03 03:33:31;;;;;;;12.43;9.30;;;16.40;99.90;;;;;;4592323;19;20006;-78
2023/12/03 03:35:06;;;;;;;11.40;8.77;;;16.40;99.90;;;;;;4592176;19;20003;-77
2023/12/03 03:36:40;;;;;;;11.30;8.68;;;16.30;99.90;;;;;;4592047;19;20002;-77
2023/12/03 03:38:16;;;;;;;13.88;9.98;;;16.30;99.90;;;;;;4591729;19;20006;-77
2023/12/03 03:39:50;;;;;;;12.43;8.40;;;16.30;99.90;;;;;;4591831;19;20476;-77
2023/12/03 03:41:27;;;;;;;11.90;8.77;;;16.30;99.90;;;;;;4591815;19;20025;-77
2023/12/03 03:43:03;;;;;;;11.80;8.98;;;16.30;99.90;;;;;;4591831;19;20010;-77
2023/12/03 03:44:37;;;;;;;11.75;7.85;;;16.30;99.90;;;;;;4591451;19;20006;-77
2023/12/03 03:46:12;;;;;;;12.30;8.68;;;16.30;99.90;;;;;;4591720;19;20058;-77
2023/12/03 03:47:48;;;;;;;12.02;8.82;;;16.30;99.90;;;;;;4591778;19;20006;-77
2023/12/03 03:49:24;;;;;;;11.80;8.27;;;16.30;99.90;;;;;;4590684;19;20039;-77
2023/12/03 03:50:58;;;;;;;10.77;8.25;;;16.30;99.90;;;;;;4591686;19;20070;-77
2023/12/03 03:52:35;;;;;;;11.00;8.93;;;16.30;99.90;;;;;;4590373;19;20006;-77
2023/12/03 03:54:09;;;;;;;10.88;8.57;;;16.30;99.90;;;;;;4591609;19;20009;-77
2023/12/03 03:55:44;;;;;;;10.40;7.32;;;16.30;99.90;;;;;;4591568;19;19998;-77
2023/12/03 03:57:20;;;;;;;10.57;7.78;;;16.30;99.90;;;;;;4590336;19;20092;-77
2023/12/03 03:58:55;;;;;;;12.23;9.25;;;16.30;99.90;;;;;;4590320;19;20409;-77
2023/12/03 04:00:29;;;;;;;12.48;8.98;;;16.30;99.90;;;;;;4591409;19;20021;-77
2023/12/03 04:02:04;;;;;;;11.90;8.82;;;16.30;99.90;;;;;;4591480;19;20110;-77
2023/12/03 04:03:38;;;;;;;11.02;8.20;;;16.20;99.90;;;;;;4591769;19;20353;-77
2023/12/03 04:05:12;;;;;;;10.00;7.32;;;16.30;99.90;;;;;;4590456;19;20013;-77
2023/12/03 04:06:48;;;;;;;11.30;8.50;;;16.30;99.90;;;;;;4590074;19;20086;-77
2023/12/03 04:08:24;;;;;;;9.68;7.45;;;16.30;99.90;;;;;;4593809;19;20005;-77
2023/12/03 04:10:00;;;;;;;9.73;7.75;;;16.30;99.90;;;;;;4596043;19;20003;-77
2023/12/03 04:11:45;;;;;;;10.45;7.63;;;16.40;99.90;;;;;;4594791;19;20002;-77
2023/12/03 04:13:19;;;;;;;9.43;7.50;;;16.40;99.90;;;;;;4594668;19;20532;-77
2023/12/03 04:14:54;;;;;;;10.13;7.80;;;16.40;99.90;;;;;;4595511;19;20074;-78
2023/12/03 04:16:29;;;;;;;10.68;7.63;;;16.40;99.90;;;;;;4596250;19;20070;-77
2023/12/03 04:18:03;;;;;;;9.52;7.13;;;16.40;99.90;;;;;;4595765;19;20017;-77
2023/12/03 04:19:37;;;;;;;9.27;6.72;;;16.50;99.90;;;;;;4592365;19;20021;-77
2023/12/03 04:21:16;;;;;;;9.43;6.95;;;16.50;99.90;;;;;;4594519;19;20010;-77
2023/12/03 04:22:50;;;;;;;8.75;6.97;;;16.50;99.90;;;;;;4595516;19;20002;-77
2023/12/03 04:24:25;;;;;;;8.93;6.68;;;16.60;99.90;;;;;;4595183;19;20009;-77
2023/12/03 04:26:02;;;;;;;9.30;7.13;;;16.60;99.90;;;;;;4595735;19;20014;-77
2023/12/03 04:27:36;;;;;;;8.73;7.00;;;16.60;99.90;;;;;;4595553;19;20009;-78
2023/12/03 04:29:10;;;;;;;8.80;7.30;;;16.60;99.90;;;;;;4593022;19;20009;-77
2023/12/03 04:30:46;;;;;;;7.57;6.00;;;16.60;99.90;;;;;;4595256;19;20434;-77
2023/12/03 04:32:21;;;;;;;8.95;6.13;;;16.70;99.90;;;;;;4595571;19;20002;-78
2023/12/03 04:33:56;;;;;;;8.95;6.50;;;16.70;99.90;;;;;;4595509;19;20011;-77
2023/12/03 04:35:32;;;;;;;10.18;7.80;;;16.70;99.90;;;;;;4594234;19;20476;-77
2023/12/03 04:37:06;;;;;;;8.93;6.88;;;16.70;99.90;;;;;;4594031;19;20307;-78
2023/12/03 04:38:40;;;;;;;8.45;6.18;;;16.80;99.90;;;;;;4594259;19;20003;-77
2023/12/03 04:40:17;;;;;;;9.27;6.78;;;16.80;99.90;;;;;;4595794;19;20003;-77
2023/12/03 04:41:52;;;;;;;8.77;7.05;;;16.80;99.90;;;;;;4595617;19;20448;-77
2023/12/03 04:43:26;;;;;;;7.50;6.22;;;16.80;99.90;;;;;;4595594;19;20022;-77
2023/12/03 04:45:03;;;;;;;8.50;6.82;;;16.80;99.90;;;;;;4594178;19;20007;-77
2023/12/03 04:46:43;;;;;;;8.63;6.20;;;16.80;99.90;;;;;;4595196;19;20031;-77
2023/12/03 04:48:17;;;;;;;8.88;6.65;;;16.80;99.90;;;;;;4593688;19;20062;-77
2023/12/03 04:49:53;;;;;;;9.38;6.93;;;16.80;99.90;;;;;;4594966;19;20005;-77
2023/12/03 04:51:27;;;;;;;8.05;6.30;;;16.80;99.90;;;;;;4595059;19;20003;-78
2023/12/03 04:53:01;;;;;;;8.07;5.93;;;16.90;99.90;;;;;;4595187;19;20103;-77
2023/12/03 04:54:37;;;;;;;7.80;5.45;;;17.20;99.90;;;;;;4595057;19;20074;-77
2023/12/03 04:56:12;;;;;;;6.90;5.25;;;17.40;99.90;;;;;;4595418;19;20011;-77
2023/12/03 04:57:47;;;;;;;7.00;5.10;;;17.60;99.90;;;;;;4594842;19;20010;-77
2023/12/03 04:59:23;;;;;;;7.97;5.53;;;17.80;99.90;;;;;;4593616;19;20353;-77
2023/12/03 05:00:57;;;;;;;7.75;5.57;;;18.00;99.90;;;;;;4593584;19;20006;-77
2023/12/03 05:02:31;;;;;;;9.23;6.00;;;18.20;99.90;;;;;;4594955;19;20006;-77
2023/12/03 05:04:06;;;;;;;7.88;5.85;;;18.30;99.90;;;;;;4594840;19;20011;-77
2023/12/03 05:05:41;;;;;;;8.07;5.53;;;18.50;99.90;;;;;;4594743;19;20015;-77
2023/12/03 05:07:15;;;;;;;9.23;5.35;;;18.50;99.90;;;;;;4595113;19;20088;-78
2023/12/03 05:08:51;;;;;;;6.63;5.22;;;18.60;99.90;;;;;;4594006;19;20428;-76
2023/12/03 05:10:25;;;;;;;7.95;5.25;;;18.70;99.90;;;;;;4594822;19;19998;-77
2023/12/03 05:12:00;;;;;;;7.80;5.50;;;18.70;99.90;;;;;;4594710;19;20440;-79
2023/12/03 05:13:35;;;;;;;8.68;6.65;;;18.70;99.90;;;;;;4594810;19;20018;-78
2023/12/03 05:15:10;;;;;;;7.97;5.93;;;18.80;99.90;;;;;;4594593;19;20021;-79
2023/12/03 05:16:44;;;;;;;8.25;6.00;;;18.80;99.90;;;;;;4594687;19;19998;-79
2023/12/03 05:18:20;;;;;;;7.93;5.72;;;18.80;99.90;;;;;;4593879;19;20013;-78
2023/12/03 05:19:54;;;;;;;7.53;5.35;;;18.80;99.90;;;;;;4592343;19;20007;-78
2023/12/03 05:21:29;;;;;;;10.48;5.97;;;18.90;99.90;;;;;;4593116;19;20037;-76
2023/12/03 05:23:04;;;;;;;8.07;5.45;;;18.80;99.90;;;;;;4593208;19;20016;-75
2023/12/03 05:24:38;;;;;;;7.22;5.22;;;18.90;99.90;;;;;;4593498;19;20074;-76
2023/12/03 05:26:12;;;;;;;8.27;6.03;;;18.80;99.90;;;;;;4594531;19;20021;-76
2023/12/03 05:27:48;;;;;;;8.07;5.28;;;18.80;99.90;;;;;;4594384;19;20006;-76
2023/12/03 05:29:22;;;;;;;8.15;4.80;;;18.80;99.90;;;;;;4593297;19;20010;-76
2023/12/03 05:30:56;;;;;;;6.90;5.68;;;18.70;99.90;;;;;;4592913;19;20457;-75
2023/12/03 05:32:32;;;;;;;8.32;5.65;;;18.70;99.90;;;;;;4593962;19;20456;-76
2023/12/03 05:34:08;;;;;;;9.13;5.93;;;18.70;99.90;;;;;;4592936;19;20026;-76
2023/12/03 05:35:42;;;;;;;7.82;5.38;;;18.60;99.90;;;;;;4593984;19;19999;-77
2023/12/03 05:37:19;;;;;;;8.02;5.22;;;18.50;99.90;;;;;;4592885;19;20103;-76
2023/12/03 05:38:53;;;;;;;7.32;5.22;;;18.50;99.90;;;;;;4592992;19;20013;-76
2023/12/03 05:40:29;;;;;;;7.57;5.82;;;18.50;99.90;;;;;;4594207;19;19999;-76
2023/12/03 05:42:04;;;;;;;8.13;5.32;;;18.40;99.90;;;;;;4594241;19;20006;-76
2023/12/03 05:43:40;;;;;;;7.70;5.60;;;18.40;99.90;;;;;;4594251;19;20018;-75
2023/12/03 05:45:15;;;;;;;7.75;5.22;;;18.30;99.90;;;;;;4593195;19;20082;-75
2023/12/03 05:46:51;;;;;;;7.78;5.88;;;18.30;99.90;;;;;;4594041;19;20017;-76
2023/12/03 05:48:25;;;;;;;8.57;5.78;;;18.20;99.90;;;;;;4592330;19;20002;-75
2023/12/03 05:50:01;;;;;;;8.40;5.60;;;18.20;99.90;;;;;;4593637;19;20003;-76
2023/12/03 05:51:37;;;;;;;6.90;4.93;;;18.20;99.90;;;;;;4592839;19;20022;-78
2023/12/03 05:53:11;;;;;;;9.50;6.40;;;18.10;99.90;;;;;;4593656;19;20009;-77
2023/12/03 05:54:46;;;;;;;7.85;5.43;;;18.10;99.90;;;;;;4593910;19;20306;-74
2023/12/03 05:56:21;;;;;;;7.68;5.35;;;18.00;99.90;;;;;;4594021;19;20006;-74
2023/12/03 05:57:55;;;;;;;12.07;6.07;;;18.00;99.90;;;;;;4593798;19;20417;-77
2023/12/03 05:59:29;;;;;;;8.00;5.15;;;18.00;99.90;;;;;;4592699;19;20007;-77
2023/12/03 06:01:05;;;;;;;9.20;6.07;;;18.00;99.90;;;;;;4593908;19;20010;-77
2023/12/03 06:02:39;;;;;;;7.57;5.60;;;18.00;99.90;;;;;;4593945;19;20006;-77
2023/12/03 06:04:13;;;;;;;6.90;5.18;;;18.00;99.90;;;;;;4593538;19;20336;-76
2023/12/03 06:05:49;;;;;;;10.13;5.07;;;18.00;99.90;;;;;;4593679;19;20007;-76
2023/12/03 06:07:23;;;;;;;9.20;5.43;;;17.90;99.90;;;;;;4593597;19;20326;-77
2023/12/03 06:08:58;;;;;;;8.73;5.65;;;17.90;99.90;;;;;;4592714;19;20011;-76
2023/12/03 06:10:33;;;;;;;6.60;5.35;;;17.90;99.90;;;;;;4592251;19;20017;-76
2023/12/03 06:12:09;;;;;;;6.40;4.93;;;17.90;99.90;;;;;;4593499;19;20090;-76
2023/12/03 06:13:44;;;;;;;9.52;5.93;;;17.90;99.90;;;;;;4593413;19;20337;-76
2023/12/03 06:15:19;;;;;;;6.88;5.85;;;18.00;99.90;;;;;;4592152;19;20014;-77
2023/12/03 06:16:54;;;;;;;8.57;6.18;;;18.00;99.90;;;;;;4593346;19;19998;-77
2023/12/03 06:18:29;;;;;;;7.55;5.85;;;18.00;99.90;;;;;;4592722;19;20078;-77
2023/12/03 06:20:05;;;;;;;8.05;5.90;;;18.10;99.90;;;;;;4593719;19;20014;-77
2023/12/03 06:21:40;;;;;;;8.10;6.05;;;18.10;99.90;;;;;;4593372;19;20066;-76
2023/12/03 06:23:15;;;;;;;8.65;5.35;;;18.10;99.90;;;;;;4593446;19;20002;-76
2023/12/03 06:24:50;;;;;;;6.82;5.80;;;18.10;99.90;;;;;;4591270;19;20078;-77
2023/12/03 06:26:24;;;;;;;8.57;6.15;;;18.10;99.90;;;;;;4592905;19;20015;-77
2023/12/03 06:27:59;;;;;;;7.13;5.97;;;18.10;99.90;;;;;;4593116;19;19998;-77
2023/12/03 06:29:35;;;;;;;7.60;5.85;;;18.10;99.90;;;;;;4592195;19;20029;-76
2023/12/03 06:31:09;;;;;;;7.68;6.60;;;18.10;99.90;;;;;;4592874;19;20314;-77
2023/12/03 06:32:44;;;;;;;7.20;6.35;;;18.10;99.90;;;;;;4591910;19;20019;-76
2023/12/03 06:34:20;;;;;;;8.85;6.25;;;18.10;99.90;;;;;;4593001;19;20007;-76
2023/12/03 06:35:57;;;;;;;11.23;6.35;;;18.00;99.90;;;;;;4593190;19;20477;-76
2023/12/03 06:37:31;;;;;;;7.95;6.53;;;18.00;99.90;;;;;;4593182;19;20015;-76
2023/12/03 06:39:07;;;;;;;7.35;6.10;;;18.00;99.90;;;;;;4592405;19;20035;-76
2023/12/03 06:40:42;;;;;;;8.27;6.18;;;18.00;99.90;;;;;;4593204;19;20017;-76
2023/12/03 06:42:17;;;;;;;8.05;6.53;;;17.90;99.90;;;;;;4592870;19;20006;-76
2023/12/03 06:43:52;;;;;;;9.80;7.43;;;17.90;99.90;;;;;;4593012;19;20456;-76
2023/12/03 06:45:26;;;;;;;8.05;6.70;;;17.90;99.90;;;;;;4591767;19;20311;-77
2023/12/03 06:47:01;;;;;;;9.73;6.70;;;17.80;99.90;;;;;;4592750;19;20306;-76
2023/12/03 06:48:37;;;;;;;8.60;6.63;;;17.80;99.90;;;;;;4592427;19;20018;-77
2023/12/03 06:50:11;;;;;;;7.82;6.03;;;17.80;99.90;;;;;;4593002;19;20094;-77
2023/12/03 06:51:46;;;;;;;9.23;6.75;;;17.80;99.90;;;;;;4592706;19;19998;-77
2023/12/03 06:53:23;;;;;;;8.50;7.18;;;17.70;99.90;;;;;;4591351;19;20006;-77
2023/12/03 06:54:57;;;;;;;8.18;6.57;;;17.70;99.90;;;;;;4592224;19;20019;-77
2023/12/03 06:56:30;;;;;;;9.30;6.45;;;17.70;99.90;;;;;;4592807;19;20003;-77
2023/12/03 06:58:06;;;;;;;7.82;6.18;;;17.60;99.90;;;;;;4593149;19;19999;-78
2023/12/03 06:59:40;;;;;;;8.07;6.30;;;17.60;99.90;;;;;;4592637;19;20006;-78
2023/12/03 07:01:14;;;;;;;6.75;6.00;;;17.60;99.90;;;;;;4592620;19;20003;-78
2023/12/03 07:02:51;;;;;;;9.30;7.25;;;17.60;99.90;;;;;;4592579;19;20007;-77
2023/12/03 07:04:25;;;;;;;6.75;5.93;;;17.50;99.90;;;;;;4592167;19;20433;-77
2023/12/03 07:06:01;;;;;;;7.18;6.15;;;17.50;99.90;;;;;;4592498;19;20341;-77
2023/12/03 07:07:37;;;;;;;10.40;7.22;;;17.50;99.90;;;;;;4592674;19;20032;-77
2023/12/03 07:09:12;;;;;;;10.38;6.95;;;17.50;99.90;;;;;;4591726;19;20039;-76
2023/12/03 07:10:46;;;;;;;9.00;7.30;;;17.40;99.90;;;;;;4592614;19;20029;-76
2023/12/03 07:12:22;;;;;;;8.70;7.22;;;17.40;99.90;;;;;;4592891;19;19999;-77
2023/12/03 07:13:56;;;;;;;8.38;6.97;;;17.40;99.90;;;;;;4592313;19;19999;-76
2023/12/03 07:15:30;;;;;;;7.93;6.95;;;17.30;99.90;;;;;;4592294;19;20158;-78
2023/12/03 07:17:06;;;;;;;7.93;7.05;;;17.30;99.90;;;;;;4592492;19;20302;-77
2023/12/03 07:18:43;;;;;;;8.07;6.68;;;17.20;99.90;;;;;;4591360;19;20018;-77
2023/12/03 07:20:20;;;;;;;8.50;7.60;;;17.20;99.90;;;;;;4592184;19;20014;-77
2023/12/03 07:21:56;;;;;;;7.10;6.43;;;17.30;99.90;;;;;;4592161;19;20002;-76
2023/12/03 07:23:30;;;;;;;7.55;6.80;;;17.30;99.90;;;;;;4592288;19;20417;-77
2023/12/03 07:25:05;;;;;;;8.10;6.22;;;17.50;99.90;;;;;;4591317;19;20009;-77
2023/12/03 07:26:44;;;;;;;8.45;6.30;;;17.50;99.90;;;;;;4592501;19;20019;-77
2023/12/03 07:28:18;;;;;;;7.85;6.43;;;17.60;99.90;;;;;;4591921;19;20114;-76
2023/12/03 07:29:55;;;;;;;7.80;6.85;;;17.80;99.90;;;;;;4592429;19;20006;-76
2023/12/03 07:31:31;;;;;;;6.97;5.97;;;17.80;99.90;;;;;;4590710;19;20021;-77
2023/12/03 07:33:05;;;;;;;9.18;6.60;;;18.00;99.90;;;;;;4591859;19;19999;-76
2023/12/03 07:34:39;;;;;;;9.18;7.18;;;18.00;99.90;;;;;;4592119;19;20318;-75
2023/12/03 07:36:14;;;;;;;11.70;10.00;;;18.10;99.90;;;;;;4591869;19;20014;-75
2023/12/03 07:37:49;;;;;;;14.20;12.93;;;18.20;99.90;;;;;;4591867;19;20003;-75
2023/12/03 07:39:24;;;;;;;20.92;19.08;;;18.20;99.90;;;;;;4591003;19;20313;-75
2023/12/03 07:41:00;;;;;;;28.35;25.95;;;18.20;99.90;;;;;;4592031;19;20007;-75
2023/12/03 07:42:35;;;;;;;35.83;32.25;;;18.30;99.90;;;;;;4593047;19;20021;-79
2023/12/03 07:44:09;;;;;;;34.35;31.13;;;18.20;99.90;;;;;;4597340;19;20493;-78
2023/12/03 07:45:45;;;;;;;36.30;33.15;;;18.20;99.90;;;;;;4597289;19;20007;-77
2023/12/03 07:47:18;;;;;;;35.00;31.83;;;18.20;99.90;;;;;;4596926;19;20078;-75
2023/12/03 07:48:53;;;;;;;35.80;32.30;;;18.20;99.90;;;;;;4594481;19;20353;-78
2023/12/03 07:50:29;;;;;;;36.22;32.72;;;18.30;99.90;;;;;;4596770;19;20313;-78
2023/12/03 07:52:03;;;;;;;39.25;35.22;;;18.40;99.90;;;;;;4596890;19;20010;-79
2023/12/03 07:53:37;;;;;;;36.60;32.67;;;18.40;99.90;;;;;;4597122;19;19998;-76
2023/12/03 07:55:15;;;;;;;39.40;34.58;;;18.50;99.90;;;;;;4595522;19;20013;-75
2023/12/03 07:56:49;;;;;;;41.22;35.78;;;18.60;99.90;;;;;;4596357;19;20043;-78
2023/12/03 07:58:24;;;;;;;36.70;32.80;;;18.60;99.90;;;;;;4595539;19;20036;-79
2023/12/03 08:00:01;;;;;;;43.33;34.97;;;18.60;99.90;;;;;;4597149;19;20014;-79
2023/12/03 08:01:36;;;;;;;42.72;35.53;;;18.80;99.90;;;;;;4597084;19;20066;-78
2023/12/03 08:03:10;;;;;;;39.45;35.10;;;18.80;99.90;;;;;;4597236;19;20332;-79
2023/12/03 08:04:46;;;;;;;42.15;35.00;;;18.90;99.90;;;;;;4596464;19;20010;-73
2023/12/03 08:06:20;;;;;;;38.63;34.20;;;19.00;99.90;;;;;;4596839;19;20009;-83
2023/12/03 08:07:54;;;;;;;49.95;35.78;;;19.10;99.90;;;;;;4597413;19;20006;-81
2023/12/03 08:09:30;;;;;;;42.38;34.95;;;19.10;99.90;;;;;;4594804;19;20017;-85
2023/12/03 08:11:08;;;;;;;44.15;34.45;;;19.20;99.90;;;;;;4597502;19;20370;-78
2023/12/03 08:12:42;;;;;;;39.92;32.75;;;19.20;99.90;;;;;;4599221;19;20062;-76
2023/12/03 08:14:17;;;;;;;3.70;2.08;;;19.20;99.90;;;;;;4597671;19;20053;-78
2023/12/03 08:15:52;;;;;;;17.23;13.25;;;19.00;99.90;;;;;;4595752;19;20386;-77
2023/12/03 08:17:26;;;;;;;16.58;13.27;;;18.40;96.00;;;;;;4596571;19;20017;-79
2023/12/03 08:19:01;;;;;;;17.05;13.55;;;18.00;95.90;;;;;;4595479;19;20014;-78
2023/12/03 08:20:36;;;;;;;14.60;13.13;;;17.70;94.90;;;;;;4596785;19;19998;-77
2023/12/03 08:22:10;;;;;;;16.88;15.10;;;17.40;94.50;;;;;;4595541;19;19998;-78
2023/12/03 08:23:47;;;;;;;18.75;14.00;;;17.20;94.30;;;;;;4595396;19;20014;-78
2023/12/03 08:25:22;;;;;;;16.70;12.60;;;17.10;94.20;;;;;;4594018;19;20445;-78
2023/12/03 08:26:58;;;;;;;19.67;15.38;;;17.00;94.10;;;;;;4595599;19;20011;-78